METAR Data
IDs: Format: Raw Decoded Include TAF

Data at: 2034 UTC 18 Apr 2021

KMAI 181953Z AUTO 28005KT 22/13 A2986 RMK AO2 SLP110 T02220128 $
KMAI 181853Z AUTO 24007KT 10SM FEW032 SCT095 22/14 A2988 RMK AO2 SLP117 T02220144
KMAI 181753Z AUTO 26004KT 10SM BKN100 22/14 A2990 RMK AO2 SLP123 60000 T02170144 10217 20161 58016
KMAI 181653Z AUTO 28006KT 10SM SCT018 SCT110 21/16 A2992 RMK AO2 SLP130 T02060156
KMAI 181553Z AUTO VRB03KT 10SM SCT015 SCT060 BKN110 19/16 A2994 RMK AO2 SLP136 T01940156
KMAI 181511Z AUTO 29004KT 10SM SCT016 OVC060 18/15 A2994 RMK AO2 T01830150
KMAI 181502Z AUTO 27004KT 10SM BKN016 OVC060 18/15 A2994 RMK AO2 T01830150
KMAI 181453Z AUTO 25005KT 10SM BKN014 OVC060 18/15 A2995 RMK AO2 SLP140 60000 T01780150 53008
KMAI 181412Z AUTO 22003KT 10SM BKN011 OVC055 18/16 A2993 RMK AO2 T01780156
KMAI 181353Z AUTO 24004KT 10SM BKN008 BKN013 OVC055 17/16 A2993 RMK AO2 CIG 005V012 SLP134 T01720156
KMAI 181313Z AUTO 24003KT 10SM BKN006 OVC055 17/16 A2993 RMK AO2 CIG 004V008 T01670161
KMAI 181302Z AUTO 28004KT 10SM SCT004 OVC055 17/16 A2993 RMK AO2 T01670161
KMAI 181253Z AUTO 26003KT 10SM BKN055 17/16 A2993 RMK AO2 RAB12E24 SLP134 P0000 T01670161
KMAI 181153Z AUTO 24003KT 10SM FEW007 OVC049 17/16 A2992 RMK AO2 RAE48 SLP132 P0002 60012 70108 T01670156 10167 20161 53010
KMAI 181143Z AUTO 23003KT 10SM -RA FEW006 BKN047 OVC110 16/16 A2992 RMK AO2 P0002 T01610156
KMAI 181053Z AUTO 28006KT 10SM -RA FEW040 OVC050 16/16 A2992 RMK AO2 RAB36 SLP131 P0001 T01610156
KMAI 181015Z AUTO 28004KT 10SM SCT006 16/16 A2988 RMK AO2 T01610156
KMAI 180953Z AUTO 00000KT 10SM BKN006 16/16 A2987 RMK AO2 RAE16 CIG 004V009 SLP114 P0001 T01610156
KMAI 180900Z AUTO 23004KT 6SM -RA BR OVC005 17/16 A2990 RMK AO2 P0001 T01670161
KMAI 180853Z AUTO 27005KT 7SM RA OVC004 17/16 A2989 RMK AO2 SLP122 P0002 60008 T01670161 51008
KMAI 180753Z AUTO 00000KT 10SM -RA OVC004 16/16 A2988 RMK AO2 SLP115 P0006 T01610161
KMAI 180653Z AUTO 27005KT 8SM -RA OVC003 16/16 A2990 RMK AO2 RAB51 SLP123 P0000 T01610161
KMAI 180629Z AUTO 25005KT 10SM BKN003 17/16 A2990 RMK AO2 T01670161
KMAI 180610Z AUTO 30003KT 8SM SCT003 16/16 A2987 RMK AO2 T01610161
KMAI 180553Z AUTO 31004KT 10SM BKN003 16/16 A2987 RMK AO2 RAE20 SLP114 P0001 60016 T01610161 10167 20161 402110150 56025
KMAI 180539Z AUTO 00000KT 10SM BKN004 17/16 A2986 RMK AO2 RAE20 P0001 T01670161
KMAI 180459Z AUTO 00000KT 8SM -RA SCT005 BKN080 OVC100 17/16 A2989 RMK AO2 PRESFR P0000 T01670161
KMAI 180453Z AUTO 00000KT 8SM -RA BKN005 OVC100 17/16 A2990 RMK AO2 PRESFR SLP124 P0010 T01670161
KMAI 180448Z AUTO 17003KT 8SM -RA SCT005 SCT075 OVC100 17/16 A2991 RMK AO2 P0009
KMAI 180422Z AUTO 27003KT 5SM RA BR BKN005 BKN060 OVC075 17/16 A2994 RMK AO2 P0005 T01670161
KMAI 180353Z AUTO 25007KT 6SM RA BR OVC004 17/16 A2995 RMK AO2 RAB03 SLP139 P0003 T01670161
KMAI 180308Z AUTO 29006KT 10SM -RA BKN004 BKN047 OVC120 17/16 A2991 RMK AO2 RAB03 P0000 T01670161
KMAI 180253Z AUTO 32006KT 9SM OVC005 17/16 A2989 RMK AO2 SLP121 60002 T01670161 50017
KMAI 180224Z AUTO 34005KT 9SM OVC005 17/16 A2988 RMK AO2 T01670161
KMAI 180153Z AUTO 31005KT 10SM BKN004 BKN048 OVC110 17/16 A2990 RMK AO2 RAE49 SLP122 P0001 T01670161
KMAI 180150Z AUTO 31005KT 10SM BKN004 BKN048 OVC110 17/16 A2989 RMK AO2 RAE49 P0001
KMAI 180053Z AUTO 17004KT 10SM -RA FEW003 FEW090 SCT110 17/16 A2984 RMK AO2 RAE17B46 SLP104 P0001 T01670161
KMAI 180028Z AUTO 13004KT 10SM FEW002 BKN120 17/16 A2981 RMK AO2 RAE17 P0001 T01670161
KMAI 172353Z AUTO 15004KT 5SM RA BR FEW010 BKN100 OVC110 17/16 A2985 RMK AO2 PRESFR SLP108 P0016 60080 T01670161 10200 20167 56006
KMAI 172351Z AUTO 14004KT 5SM RA BR FEW010 BKN100 OVC110 17/16 A2986 RMK AO2 PRESFR P0015
KMAI 172338Z AUTO 00000KT 2 1/2SM RA BR FEW011 BKN090 OVC110 17/16 A2988 RMK AO2 P0011 T01670161
KMAI 172328Z AUTO 20005KT 3SM +RA BR FEW004 BKN090 OVC110 17/16 A2988 RMK AO2 P0008 T01670161
KMAI 172320Z AUTO 00000KT 2 1/2SM RA BR FEW004 BKN090 OVC110 17/16 A2987 RMK AO2 P0006 T01670161
KMAI 172253Z AUTO 34005KT 4SM RA BR SCT004 SCT070 OVC100 17/16 A2986 RMK AO2 LTG DSNT W SLP110 P0027 T01670161
KMAI 172239Z AUTO 34004KT 4SM RA BR SCT004 BKN047 OVC110 17/16 A2985 RMK AO2 LTG DSNT S P0022 T01670161
KMAI 172220Z AUTO 00000KT 2 1/2SM +RA BR FEW005 BKN080 OVC095 17/16 A2986 RMK AO2 P0011 T01670161
KMAI 172214Z AUTO 03003KT 3SM RA BR SCT070 OVC090 17/16 A2986 RMK AO2 LTG DSNT E P0008 T01670161
KMAI 172153Z AUTO 35005KT 2 1/2SM +RA BR SCT055 BKN070 OVC080 17/16 A2987 RMK AO2 LTG DSNT SE AND S TSB2058E13 SLP114 P0018 T01670161
KMAI 172146Z AUTO 33005KT 3SM VCTS +RA BR BKN050 OVC075 17/16 A2988 RMK AO2 LTG DSNT SE-SW TSB2058E13 P0015 T01670161
KMAI 172137Z AUTO 32006KT 2 1/2SM VCTS +RA BR BKN055 OVC110 17/16 A2988 RMK AO2 LTG DSNT SE-SW TSB2058E13 P0012 T01670161
KMAI 172119Z AUTO 23003KT 3SM RA BR BKN060 BKN090 OVC110 17/16 A2985 RMK AO2 LTG DSNT ALQDS TSB2058E13 P0007 T01670161
KMAI 172101Z AUTO 29003KT 5SM TSRA BR FEW050 BKN060 OVC100 17/16 A2986 RMK AO2 LTG DSNT E-SW TSB2058 P0002 T01720161
KMAI 172053Z AUTO 33006KT 5SM VCTS RA BR SCT048 BKN055 OVC110 17/16 A2986 RMK AO2 LTG DSNT SE-SW PRESRR SLP110 P0014 60019 T01720161 56005
KMAI 172038Z AUTO 18005KT 3SM VCTS RA BR BKN050 BKN065 OVC080 17/16 A2984 RMK AO2 LTG DSNT S AND SW P0007 T01720161
KMAI 171953Z AUTO 32005KT 10SM -RA BKN044 OVC050 18/16 A2987 RMK AO2 LTG DSNT W RAB50 SLP115 P0000 T01830161
KMAI 171853Z AUTO 00000KT 10SM OVC055 19/16 A2985 RMK AO2 RAB09E52 SLP108 P0005 T01890156
KMAI 171753Z AUTO 33005KT 10SM OVC060 20/14 A2988 RMK AO2 RAB14E33 SLP116 P0000 60000 T02000144 10211 20150 58008
KMAI 171653Z AUTO 08005KT 10SM FEW024 BKN070 BKN085 20/14 A2989 RMK AO2 SLP119 T02000144
KMAI 171553Z AUTO 09004KT 10SM BKN100 20/14 A2990 RMK AO2 SLP123 T02000139
KMAI 171453Z AUTO 06006KT 10SM FEW028 FEW120 18/14 A2990 RMK AO2 SLP124 60000 T01780139 51010
KMAI 171353Z AUTO 05006KT 10SM OVC027 16/14 A2990 RMK AO2 RAE16 SLP122 P0000 T01610144
KMAI 171253Z AUTO 36005KT 10SM -RA OVC020 15/14 A2991 RMK AO2 RAB34 SLP128 P0000 T01500139
KMAI 171153Z AUTO 01005KT 10SM OVC021 15/14 A2987 RMK AO2 PRESRR SLP113 60006 70015 T01500139 10161 20150 53018
KMAI 171141Z AUTO 05004KT 10SM BKN021 OVC110 15/14 A2985 RMK AO2 T01500139
KMAI 171053Z AUTO 05003KT 10SM OVC120 15/14 A2982 RMK AO2 SLP095 T01500139
KMAI 170953Z AUTO 00000KT 10SM BKN120 15/14 A2983 RMK AO2 RAE0859B16E35 SLP099 P0000 T01500144
KMAI 170853Z AUTO 00000KT 10SM -RA SCT110 15/14 A2982 RMK AO2 SLP096 P0001 60006 T01500139 58013